sensor_id;sensor_type;location;lat;lon;timestamp;pressure;altitude;pressure_sealevel;temperature;humidity
76484;BME280;65318;-33.924;18.406;2022-12-07T00:02:10;100336.32;;;24.69;32.91
76484;BME280;65318;-33.924;18.406;2022-12-07T00:04:36;100334.47;;;24.76;32.84
76484;BME280;65318;-33.924;18.406;2022-12-07T00:07:01;100332.49;;;23.99;33.18
76484;BME280;65318;-33.924;18.406;2022-12-07T00:09:27;100331.47;;;24.23;32.86
76484;BME280;65318;-33.924;18.406;2022-12-07T00:11:53;100331.12;;;24.10;33.29
76484;BME280;65318;-33.924;18.406;2022-12-07T00:14:19;100334.07;;;23.78;33.40
76484;BME280;65318;-33.924;18.406;2022-12-07T00:16:44;100330.09;;;24.65;32.46
76484;BME280;65318;-33.924;18.406;2022-12-07T00:19:10;100327.68;;;24.81;32.54
76484;BME280;65318;-33.924;18.406;2022-12-07T00:21:36;100326.52;;;24.73;32.59
76484;BME280;65318;-33.924;18.406;2022-12-07T00:24:02;100327.39;;;24.20;32.84
76484;BME280;65318;-33.924;18.406;2022-12-07T00:26:27;100324.31;;;24.25;32.79
76484;BME280;65318;-33.924;18.406;2022-12-07T00:28:54;100322.28;;;24.67;32.98
76484;BME280;65318;-33.924;18.406;2022-12-07T00:31:19;100317.64;;;24.11;33.22
76484;BME280;65318;-33.924;18.406;2022-12-07T00:33:43;100321.04;;;24.17;33.34
76484;BME280;65318;-33.924;18.406;2022-12-07T00:36:11;100320.40;;;24.11;33.03
76484;BME280;65318;-33.924;18.406;2022-12-07T00:38:36;100314.10;;;24.61;32.51
76484;BME280;65318;-33.924;18.406;2022-12-07T00:41:01;100312.60;;;24.92;32.51
76484;BME280;65318;-33.924;18.406;2022-12-07T00:43:25;100305.93;;;24.63;32.60
76484;BME280;65318;-33.924;18.406;2022-12-07T00:45:52;100304.67;;;24.15;33.14
76484;BME280;65318;-33.924;18.406;2022-12-07T00:48:16;100305.82;;;23.74;33.34
76484;BME280;65318;-33.924;18.406;2022-12-07T00:50:42;100302.19;;;23.97;33.07
76484;BME280;65318;-33.924;18.406;2022-12-07T00:53:07;100298.36;;;24.12;33.46
76484;BME280;65318;-33.924;18.406;2022-12-07T00:55:33;100297.48;;;24.46;32.87
76484;BME280;65318;-33.924;18.406;2022-12-07T00:57:58;100295.02;;;24.32;33.02
76484;BME280;65318;-33.924;18.406;2022-12-07T01:00:24;100294.75;;;23.68;33.64
76484;BME280;65318;-33.924;18.406;2022-12-07T01:02:49;100286.68;;;24.38;33.19
76484;BME280;65318;-33.924;18.406;2022-12-07T01:05:15;100284.56;;;23.99;32.96
76484;BME280;65318;-33.924;18.406;2022-12-07T01:07:40;100288.03;;;24.52;32.96
76484;BME280;65318;-33.924;18.406;2022-12-07T01:10:07;100287.25;;;24.46;33.04
76484;BME280;65318;-33.924;18.406;2022-12-07T01:12:32;100284.32;;;24.16;33.37
76484;BME280;65318;-33.924;18.406;2022-12-07T01:14:57;100283.17;;;23.74;33.30
76484;BME280;65318;-33.924;18.406;2022-12-07T01:17:23;100285.86;;;24.21;33.09
76484;BME280;65318;-33.924;18.406;2022-12-07T01:19:48;100286.82;;;24.08;33.51
76484;BME280;65318;-33.924;18.406;2022-12-07T01:22:14;100288.55;;;23.97;33.49
76484;BME280;65318;-33.924;18.406;2022-12-07T01:24:39;100286.59;;;24.53;32.98
76484;BME280;65318;-33.924;18.406;2022-12-07T01:27:05;100284.06;;;23.94;33.21
76484;BME280;65318;-33.924;18.406;2022-12-07T01:29:31;100280.72;;;24.38;33.03
76484;BME280;65318;-33.924;18.406;2022-12-07T01:31:56;100281.25;;;24.05;33.13
76484;BME280;65318;-33.924;18.406;2022-12-07T01:34:22;100278.00;;;24.28;33.09
76484;BME280;65318;-33.924;18.406;2022-12-07T01:36:47;100273.08;;;23.95;33.18
76484;BME280;65318;-33.924;18.406;2022-12-07T01:39:13;100269.76;;;24.14;33.23
76484;BME280;65318;-33.924;18.406;2022-12-07T01:41:40;100267.56;;;23.82;33.37
76484;BME280;65318;-33.924;18.406;2022-12-07T01:44:12;100270.42;;;24.44;32.92
76484;BME280;65318;-33.924;18.406;2022-12-07T01:46:30;100273.21;;;24.06;33.12
76484;BME280;65318;-33.924;18.406;2022-12-07T01:48:55;100267.63;;;24.81;32.60
76484;BME280;65318;-33.924;18.406;2022-12-07T01:51:21;100268.33;;;24.71;32.71
76484;BME280;65318;-33.924;18.406;2022-12-07T01:53:46;100270.26;;;24.48;32.89
76484;BME280;65318;-33.924;18.406;2022-12-07T01:56:17;100268.41;;;24.01;33.38
76484;BME280;65318;-33.924;18.406;2022-12-07T01:58:38;100262.52;;;24.56;32.80
76484;BME280;65318;-33.924;18.406;2022-12-07T02:01:03;100264.43;;;23.74;33.06
76484;BME280;65318;-33.924;18.406;2022-12-07T02:03:34;100265.75;;;24.48;32.88
76484;BME280;65318;-33.924;18.406;2022-12-07T02:05:55;100268.96;;;24.09;33.08
76484;BME280;65318;-33.924;18.406;2022-12-07T02:08:20;100272.24;;;24.44;32.91
76484;BME280;65318;-33.924;18.406;2022-12-07T02:10:46;100271.61;;;24.01;33.29
76484;BME280;65318;-33.924;18.406;2022-12-07T02:13:14;100273.82;;;23.47;34.00
76484;BME280;65318;-33.924;18.406;2022-12-07T02:15:50;100274.09;;;24.25;33.00
76484;BME280;65318;-33.924;18.406;2022-12-07T02:18:07;100276.58;;;24.17;32.87
76484;BME280;65318;-33.924;18.406;2022-12-07T02:20:30;100280.84;;;23.58;33.56
76484;BME280;65318;-33.924;18.406;2022-12-07T02:23:17;100276.44;;;24.52;32.80
76484;BME280;65318;-33.924;18.406;2022-12-07T02:25:27;100274.42;;;24.06;32.91
76484;BME280;65318;-33.924;18.406;2022-12-07T02:27:47;100275.42;;;24.42;32.78
76484;BME280;65318;-33.924;18.406;2022-12-07T02:30:12;100279.49;;;24.37;32.87
76484;BME280;65318;-33.924;18.406;2022-12-07T02:32:43;100280.49;;;24.40;32.88
76484;BME280;65318;-33.924;18.406;2022-12-07T02:35:06;100273.78;;;24.18;33.07
76484;BME280;65318;-33.924;18.406;2022-12-07T02:37:34;100270.11;;;23.93;33.11
76484;BME280;65318;-33.924;18.406;2022-12-07T02:39:55;100266.41;;;24.50;32.77
76484;BME280;65318;-33.924;18.406;2022-12-07T02:42:21;100264.94;;;24.10;33.16
76484;BME280;65318;-33.924;18.406;2022-12-07T02:44:44;100266.67;;;23.84;33.34
76484;BME280;65318;-33.924;18.406;2022-12-07T02:47:12;100271.13;;;23.77;33.55
76484;BME280;65318;-33.924;18.406;2022-12-07T02:49:36;100271.88;;;23.83;33.57
76484;BME280;65318;-33.924;18.406;2022-12-07T02:52:00;100274.76;;;23.80;33.42
76484;BME280;65318;-33.924;18.406;2022-12-07T02:54:26;100273.39;;;23.95;33.42
76484;BME280;65318;-33.924;18.406;2022-12-07T02:56:56;100271.63;;;24.20;33.23
76484;BME280;65318;-33.924;18.406;2022-12-07T02:59:25;100272.18;;;24.33;33.11
76484;BME280;65318;-33.924;18.406;2022-12-07T03:01:48;100275.02;;;23.50;33.86
76484;BME280;65318;-33.924;18.406;2022-12-07T03:04:18;100277.72;;;24.03;33.28
76484;BME280;65318;-33.924;18.406;2022-12-07T03:06:38;100282.01;;;23.70;33.87
76484;BME280;65318;-33.924;18.406;2022-12-07T03:09:06;100282.41;;;24.04;33.35
76484;BME280;65318;-33.924;18.406;2022-12-07T03:11:30;100286.84;;;24.21;33.29
76484;BME280;65318;-33.924;18.406;2022-12-07T03:13:56;100290.42;;;24.36;32.87
76484;BME280;65318;-33.924;18.406;2022-12-07T03:16:19;100294.82;;;23.97;33.25
76484;BME280;65318;-33.924;18.406;2022-12-07T03:18:45;100295.74;;;24.03;33.26
76484;BME280;65318;-33.924;18.406;2022-12-07T03:21:11;100291.83;;;24.15;33.27
76484;BME280;65318;-33.924;18.406;2022-12-07T03:23:35;100294.40;;;24.39;32.92
76484;BME280;65318;-33.924;18.406;2022-12-07T03:26:01;100300.10;;;23.79;33.27
76484;BME280;65318;-33.924;18.406;2022-12-07T03:28:26;100302.25;;;23.75;33.75
76484;BME280;65318;-33.924;18.406;2022-12-07T03:30:53;100302.77;;;24.24;33.24
76484;BME280;65318;-33.924;18.406;2022-12-07T03:33:19;100303.44;;;24.81;32.63
76484;BME280;65318;-33.924;18.406;2022-12-07T03:35:43;100305.61;;;24.29;33.23
76484;BME280;65318;-33.924;18.406;2022-12-07T03:38:13;100306.13;;;24.01;33.26
76484;BME280;65318;-33.924;18.406;2022-12-07T03:40:37;100305.71;;;24.55;33.01
76484;BME280;65318;-33.924;18.406;2022-12-07T03:42:57;100305.55;;;24.57;32.93
76484;BME280;65318;-33.924;18.406;2022-12-07T03:45:26;100309.53;;;23.99;33.53
76484;BME280;65318;-33.924;18.406;2022-12-07T03:47:53;100307.62;;;24.33;33.20
76484;BME280;65318;-33.924;18.406;2022-12-07T03:50:18;100309.07;;;24.07;33.43
76484;BME280;65318;-33.924;18.406;2022-12-07T03:52:41;100307.19;;;23.84;33.26
76484;BME280;65318;-33.924;18.406;2022-12-07T03:55:08;100305.45;;;24.26;33.34
76484;BME280;65318;-33.924;18.406;2022-12-07T03:57:32;100305.56;;;24.74;32.86
76484;BME280;65318;-33.924;18.406;2022-12-07T03:59:57;100299.28;;;25.56;31.41
76484;BME280;65318;-33.924;18.406;2022-12-07T04:02:23;100299.79;;;26.35;30.03
76484;BME280;65318;-33.924;18.406;2022-12-07T04:04:47;100306.04;;;27.30;28.76
76484;BME280;65318;-33.924;18.406;2022-12-07T04:07:13;100309.39;;;27.39;28.43
76484;BME280;65318;-33.924;18.406;2022-12-07T04:09:38;100306.69;;;28.58;27.49
76484;BME280;65318;-33.924;18.406;2022-12-07T04:12:04;100312.21;;;28.85;26.96
76484;BME280;65318;-33.924;18.406;2022-12-07T04:14:29;100315.90;;;28.82;26.87
76484;BME280;65318;-33.924;18.406;2022-12-07T04:16:57;100313.05;;;27.39;28.29
76484;BME280;65318;-33.924;18.406;2022-12-07T04:19:23;100319.23;;;27.02;28.91
76484;BME280;65318;-33.924;18.406;2022-12-07T04:21:46;100324.50;;;26.78;29.60
76484;BME280;65318;-33.924;18.406;2022-12-07T04:24:13;100331.28;;;26.44;29.97
76484;BME280;65318;-33.924;18.406;2022-12-07T04:26:37;100332.90;;;26.13;30.45
76484;BME280;65318;-33.924;18.406;2022-12-07T04:29:03;100335.50;;;26.67;30.37
76484;BME280;65318;-33.924;18.406;2022-12-07T04:31:28;100337.94;;;26.25;30.57
76484;BME280;65318;-33.924;18.406;2022-12-07T04:33:54;100336.84;;;26.43;30.56
76484;BME280;65318;-33.924;18.406;2022-12-07T04:36:20;100339.39;;;26.14;30.92
76484;BME280;65318;-33.924;18.406;2022-12-07T04:38:45;100339.96;;;27.31;29.97
76484;BME280;65318;-33.924;18.406;2022-12-07T04:41:11;100346.87;;;27.51;29.92
76484;BME280;65318;-33.924;18.406;2022-12-07T04:43:36;100351.92;;;26.79;30.16
76484;BME280;65318;-33.924;18.406;2022-12-07T04:46:02;100353.46;;;27.29;29.76
76484;BME280;65318;-33.924;18.406;2022-12-07T04:48:28;100355.92;;;27.84;29.57
76484;BME280;65318;-33.924;18.406;2022-12-07T04:50:53;100359.74;;;28.35;28.89
76484;BME280;65318;-33.924;18.406;2022-12-07T04:53:18;100362.64;;;28.64;28.56
76484;BME280;65318;-33.924;18.406;2022-12-07T04:55:44;100364.66;;;28.94;28.33
76484;BME280;65318;-33.924;18.406;2022-12-07T04:58:09;100367.77;;;28.45;28.84
76484;BME280;65318;-33.924;18.406;2022-12-07T05:00:35;100372.41;;;28.79;28.53
76484;BME280;65318;-33.924;18.406;2022-12-07T05:03:00;100373.76;;;27.59;29.45
76484;BME280;65318;-33.924;18.406;2022-12-07T05:05:26;100377.60;;;27.90;29.40
76484;BME280;65318;-33.924;18.406;2022-12-07T05:07:53;100374.44;;;27.19;29.73
76484;BME280;65318;-33.924;18.406;2022-12-07T05:10:17;100375.42;;;27.69;29.43
76484;BME280;65318;-33.924;18.406;2022-12-07T05:12:43;100377.29;;;28.94;28.16
76484;BME280;65318;-33.924;18.406;2022-12-07T05:15:09;100377.31;;;28.97;28.10
76484;BME280;65318;-33.924;18.406;2022-12-07T05:17:34;100374.48;;;29.83;27.53
76484;BME280;65318;-33.924;18.406;2022-12-07T05:19:59;100376.42;;;30.49;27.18
76484;BME280;65318;-33.924;18.406;2022-12-07T05:22:25;100375.51;;;30.10;27.53
76484;BME280;65318;-33.924;18.406;2022-12-07T05:24:50;100376.81;;;29.75;27.44
76484;BME280;65318;-33.924;18.406;2022-12-07T05:27:16;100378.31;;;29.51;27.92
76484;BME280;65318;-33.924;18.406;2022-12-07T05:29:41;100371.26;;;29.47;27.77
76484;BME280;65318;-33.924;18.406;2022-12-07T05:32:07;100370.35;;;29.98;27.72
76484;BME280;65318;-33.924;18.406;2022-12-07T05:34:32;100374.70;;;29.75;27.56
76484;BME280;65318;-33.924;18.406;2022-12-07T05:36:58;100382.14;;;29.71;27.64
76484;BME280;65318;-33.924;18.406;2022-12-07T05:39:23;100390.23;;;29.69;27.66
76484;BME280;65318;-33.924;18.406;2022-12-07T05:41:48;100394.83;;;29.67;27.75
76484;BME280;65318;-33.924;18.406;2022-12-07T05:44:14;100403.87;;;30.07;27.49
76484;BME280;65318;-33.924;18.406;2022-12-07T05:46:40;100406.31;;;29.72;27.85
76484;BME280;65318;-33.924;18.406;2022-12-07T05:49:05;100412.03;;;29.87;27.47
76484;BME280;65318;-33.924;18.406;2022-12-07T05:51:30;100407.63;;;29.67;27.92
76484;BME280;65318;-33.924;18.406;2022-12-07T05:53:56;100412.02;;;30.15;27.56
76484;BME280;65318;-33.924;18.406;2022-12-07T05:56:22;100410.48;;;29.45;28.05
76484;BME280;65318;-33.924;18.406;2022-12-07T05:58:47;100417.77;;;28.70;29.06
76484;BME280;65318;-33.924;18.406;2022-12-07T06:01:13;100420.31;;;29.96;27.92
76484;BME280;65318;-33.924;18.406;2022-12-07T06:03:38;100421.40;;;29.69;28.10
76484;BME280;65318;-33.924;18.406;2022-12-07T06:06:04;100420.72;;;30.25;27.53
76484;BME280;65318;-33.924;18.406;2022-12-07T06:08:29;100426.10;;;29.65;28.03
76484;BME280;65318;-33.924;18.406;2022-12-07T06:10:55;100430.92;;;29.45;27.95
76484;BME280;65318;-33.924;18.406;2022-12-07T06:13:20;100433.37;;;29.97;27.65
76484;BME280;65318;-33.924;18.406;2022-12-07T06:15:47;100436.95;;;29.77;27.91
76484;BME280;65318;-33.924;18.406;2022-12-07T06:18:11;100434.85;;;30.19;27.57
76484;BME280;65318;-33.924;18.406;2022-12-07T06:20:37;100435.14;;;30.58;27.73
76484;BME280;65318;-33.924;18.406;2022-12-07T06:23:02;100439.46;;;29.69;28.09
76484;BME280;65318;-33.924;18.406;2022-12-07T06:25:28;100435.64;;;29.45;28.27
76484;BME280;65318;-33.924;18.406;2022-12-07T06:27:55;100445.16;;;30.18;27.77
76484;BME280;65318;-33.924;18.406;2022-12-07T06:30:19;100444.13;;;29.86;28.02
76484;BME280;65318;-33.924;18.406;2022-12-07T06:32:44;100446.56;;;29.95;28.05
76484;BME280;65318;-33.924;18.406;2022-12-07T06:35:10;100443.10;;;29.11;28.92
76484;BME280;65318;-33.924;18.406;2022-12-07T06:37:35;100442.56;;;30.08;28.48
76484;BME280;65318;-33.924;18.406;2022-12-07T06:40:01;100443.52;;;28.89;29.24
76484;BME280;65318;-33.924;18.406;2022-12-07T06:42:26;100439.53;;;30.78;27.59
76484;BME280;65318;-33.924;18.406;2022-12-07T06:44:52;100437.68;;;29.95;28.69
76484;BME280;65318;-33.924;18.406;2022-12-07T06:47:17;100433.61;;;30.48;28.32
76484;BME280;65318;-33.924;18.406;2022-12-07T06:49:43;100436.55;;;29.63;29.28
76484;BME280;65318;-33.924;18.406;2022-12-07T06:52:08;100434.51;;;30.18;28.62
76484;BME280;65318;-33.924;18.406;2022-12-07T06:54:34;100444.68;;;29.98;28.68
76484;BME280;65318;-33.924;18.406;2022-12-07T06:56:59;100442.13;;;29.76;28.90
76484;BME280;65318;-33.924;18.406;2022-12-07T06:59:26;100438.21;;;29.65;29.05
76484;BME280;65318;-33.924;18.406;2022-12-07T07:01:51;100438.01;;;29.20;29.59
76484;BME280;65318;-33.924;18.406;2022-12-07T07:04:16;100433.74;;;29.03;29.75
76484;BME280;65318;-33.924;18.406;2022-12-07T07:06:41;100427.37;;;30.25;29.04
76484;BME280;65318;-33.924;18.406;2022-12-07T07:09:07;100427.88;;;29.09;29.69
76484;BME280;65318;-33.924;18.406;2022-12-07T07:11:32;100429.90;;;29.41;29.51
76484;BME280;65318;-33.924;18.406;2022-12-07T07:13:58;100431.28;;;29.43;29.53
76484;BME280;65318;-33.924;18.406;2022-12-07T07:16:23;100431.50;;;29.70;29.53
76484;BME280;65318;-33.924;18.406;2022-12-07T07:18:48;100428.04;;;29.31;29.52
76484;BME280;65318;-33.924;18.406;2022-12-07T07:21:14;100425.97;;;29.31;29.61
76484;BME280;65318;-33.924;18.406;2022-12-07T07:23:39;100425.44;;;29.59;29.32
76484;BME280;65318;-33.924;18.406;2022-12-07T07:26:05;100424.80;;;29.76;29.09
76484;BME280;65318;-33.924;18.406;2022-12-07T07:28:30;100425.12;;;29.58;29.38
76484;BME280;65318;-33.924;18.406;2022-12-07T07:30:56;100421.88;;;29.21;29.62
76484;BME280;65318;-33.924;18.406;2022-12-07T07:33:21;100424.91;;;29.37;29.60
76484;BME280;65318;-33.924;18.406;2022-12-07T07:35:47;100424.74;;;29.14;29.56
76484;BME280;65318;-33.924;18.406;2022-12-07T07:38:12;100418.57;;;29.20;29.70
76484;BME280;65318;-33.924;18.406;2022-12-07T07:40:38;100417.89;;;29.60;29.34
76484;BME280;65318;-33.924;18.406;2022-12-07T07:43:03;100416.53;;;29.08;29.63
76484;BME280;65318;-33.924;18.406;2022-12-07T07:45:29;100416.78;;;29.05;29.66
76484;BME280;65318;-33.924;18.406;2022-12-07T07:47:54;100421.47;;;29.81;29.20
76484;BME280;65318;-33.924;18.406;2022-12-07T07:50:21;100421.91;;;29.16;29.80
76484;BME280;65318;-33.924;18.406;2022-12-07T07:52:45;100423.49;;;29.65;29.08
76484;BME280;65318;-33.924;18.406;2022-12-07T07:55:11;100418.94;;;29.74;29.10
76484;BME280;65318;-33.924;18.406;2022-12-07T07:57:36;100419.00;;;29.28;29.61
76484;BME280;65318;-33.924;18.406;2022-12-07T08:00:02;100417.53;;;30.01;28.99
76484;BME280;65318;-33.924;18.406;2022-12-07T08:02:28;100420.34;;;29.18;29.49
76484;BME280;65318;-33.924;18.406;2022-12-07T08:04:53;100417.31;;;29.50;29.68
76484;BME280;65318;-33.924;18.406;2022-12-07T08:07:18;100418.50;;;29.55;29.39
76484;BME280;65318;-33.924;18.406;2022-12-07T08:09:43;100421.64;;;29.48;29.47
76484;BME280;65318;-33.924;18.406;2022-12-07T08:12:09;100428.77;;;29.47;29.47
76484;BME280;65318;-33.924;18.406;2022-12-07T08:14:35;100432.46;;;29.37;29.53
76484;BME280;65318;-33.924;18.406;2022-12-07T08:17:00;100432.77;;;29.30;29.59
76484;BME280;65318;-33.924;18.406;2022-12-07T08:19:25;100430.99;;;29.78;29.38
76484;BME280;65318;-33.924;18.406;2022-12-07T08:21:51;100435.02;;;29.37;29.55
76484;BME280;65318;-33.924;18.406;2022-12-07T08:24:16;100441.59;;;29.44;29.70
76484;BME280;65318;-33.924;18.406;2022-12-07T08:26:42;100441.82;;;29.62;29.53
76484;BME280;65318;-33.924;18.406;2022-12-07T08:29:07;100441.95;;;29.93;29.28
76484;BME280;65318;-33.924;18.406;2022-12-07T08:31:33;100442.14;;;29.57;29.54
76484;BME280;65318;-33.924;18.406;2022-12-07T08:33:59;100443.90;;;29.69;29.44
76484;BME280;65318;-33.924;18.406;2022-12-07T08:36:24;100444.33;;;29.41;29.71
76484;BME280;65318;-33.924;18.406;2022-12-07T08:38:50;100440.24;;;29.84;29.31
76484;BME280;65318;-33.924;18.406;2022-12-07T08:41:15;100441.12;;;29.27;29.56
76484;BME280;65318;-33.924;18.406;2022-12-07T08:43:41;100438.54;;;29.60;29.53
76484;BME280;65318;-33.924;18.406;2022-12-07T08:46:09;100438.87;;;29.06;29.84
76484;BME280;65318;-33.924;18.406;2022-12-07T08:48:33;100440.03;;;29.67;29.45
76484;BME280;65318;-33.924;18.406;2022-12-07T08:50:58;100442.85;;;29.15;29.74
76484;BME280;65318;-33.924;18.406;2022-12-07T08:53:22;100440.85;;;28.79;30.41
76484;BME280;65318;-33.924;18.406;2022-12-07T08:55:48;100439.35;;;28.89;30.28
76484;BME280;65318;-33.924;18.406;2022-12-07T08:58:14;100435.96;;;28.69;30.50
76484;BME280;65318;-33.924;18.406;2022-12-07T09:00:39;100435.32;;;28.97;30.21
76484;BME280;65318;-33.924;18.406;2022-12-07T09:03:05;100432.68;;;28.76;30.42
76484;BME280;65318;-33.924;18.406;2022-12-07T09:05:30;100431.42;;;28.84;30.36
76484;BME280;65318;-33.924;18.406;2022-12-07T09:07:57;100428.69;;;28.98;30.20
76484;BME280;65318;-33.924;18.406;2022-12-07T09:10:21;100428.43;;;29.22;30.17
76484;BME280;65318;-33.924;18.406;2022-12-07T09:12:47;100421.90;;;28.76;30.35
76484;BME280;65318;-33.924;18.406;2022-12-07T09:15:12;100430.16;;;29.14;29.99
76484;BME280;65318;-33.924;18.406;2022-12-07T09:17:38;100428.33;;;29.68;29.40
76484;BME280;65318;-33.924;18.406;2022-12-07T09:20:04;100430.41;;;29.07;30.00
76484;BME280;65318;-33.924;18.406;2022-12-07T09:22:29;100430.95;;;29.51;29.86
76484;BME280;65318;-33.924;18.406;2022-12-07T09:24:54;100428.85;;;29.46;29.96
76484;BME280;65318;-33.924;18.406;2022-12-07T09:27:20;100426.42;;;29.24;30.24
76484;BME280;65318;-33.924;18.406;2022-12-07T09:29:45;100424.85;;;29.04;30.11
76484;BME280;65318;-33.924;18.406;2022-12-07T09:32:11;100423.08;;;28.94;30.24
76484;BME280;65318;-33.924;18.406;2022-12-07T09:34:36;100418.56;;;29.00;30.16
76484;BME280;65318;-33.924;18.406;2022-12-07T09:37:02;100417.85;;;29.04;30.11
76484;BME280;65318;-33.924;18.406;2022-12-07T09:39:28;100418.42;;;29.34;30.00
76484;BME280;65318;-33.924;18.406;2022-12-07T09:41:53;100420.19;;;29.30;29.79
76484;BME280;65318;-33.924;18.406;2022-12-07T09:44:23;100418.24;;;28.85;30.21
76484;BME280;65318;-33.924;18.406;2022-12-07T09:46:44;100418.53;;;29.07;30.21
76484;BME280;65318;-33.924;18.406;2022-12-07T09:49:13;100416.19;;;28.97;30.30
76484;BME280;65318;-33.924;18.406;2022-12-07T09:51:35;100416.20;;;28.92;30.07
76484;BME280;65318;-33.924;18.406;2022-12-07T09:54:00;100415.69;;;28.90;30.09
76484;BME280;65318;-33.924;18.406;2022-12-07T09:56:25;100419.07;;;28.75;30.21
76484;BME280;65318;-33.924;18.406;2022-12-07T09:58:58;100417.92;;;28.75;30.40
76484;BME280;65318;-33.924;18.406;2022-12-07T10:01:19;100412.96;;;28.55;30.38
76484;BME280;65318;-33.924;18.406;2022-12-07T10:03:48;100411.32;;;28.80;30.36
76484;BME280;65318;-33.924;18.406;2022-12-07T10:06:10;100415.53;;;28.41;30.67
76484;BME280;65318;-33.924;18.406;2022-12-07T10:08:33;100408.96;;;28.84;30.51
76484;BME280;65318;-33.924;18.406;2022-12-07T10:10:59;100410.57;;;27.28;31.50
76484;BME280;65318;-33.924;18.406;2022-12-07T10:15:51;100415.97;;;28.44;30.85
76484;BME280;65318;-33.924;18.406;2022-12-07T10:18:21;100414.28;;;28.44;30.91
76484;BME280;65318;-33.924;18.406;2022-12-07T10:20:40;100409.85;;;28.94;30.39
76484;BME280;65318;-33.924;18.406;2022-12-07T10:23:13;100403.58;;;29.08;30.27
76484;BME280;65318;-33.924;18.406;2022-12-07T10:25:33;100404.65;;;29.30;30.16
76484;BME280;65318;-33.924;18.406;2022-12-07T10:28:00;100401.04;;;28.81;30.29
76484;BME280;65318;-33.924;18.406;2022-12-07T10:30:22;100397.37;;;29.24;30.06
76484;BME280;65318;-33.924;18.406;2022-12-07T10:32:47;100398.02;;;29.09;30.25
76484;BME280;65318;-33.924;18.406;2022-12-07T10:35:23;100389.21;;;28.51;30.48
76484;BME280;65318;-33.924;18.406;2022-12-07T10:37:41;100392.92;;;28.83;30.16
76484;BME280;65318;-33.924;18.406;2022-12-07T10:40:23;100386.56;;;29.23;30.04
76484;BME280;65318;-33.924;18.406;2022-12-07T10:42:31;100388.23;;;29.08;30.12
76484;BME280;65318;-33.924;18.406;2022-12-07T10:47:29;100382.57;;;29.07;29.91
76484;BME280;65318;-33.924;18.406;2022-12-07T10:49:55;100386.21;;;29.14;30.08
76484;BME280;65318;-33.924;18.406;2022-12-07T10:52:19;100384.75;;;29.27;30.19
76484;BME280;65318;-33.924;18.406;2022-12-07T10:54:43;100381.35;;;28.68;30.30
76484;BME280;65318;-33.924;18.406;2022-12-07T10:57:20;100383.87;;;28.97;30.05
76484;BME280;65318;-33.924;18.406;2022-12-07T11:01:58;100388.21;;;29.05;29.94
76484;BME280;65318;-33.924;18.406;2022-12-07T11:04:26;100387.59;;;29.66;29.98
76484;BME280;65318;-33.924;18.406;2022-12-07T11:06:48;100387.06;;;29.18;29.96
76484;BME280;65318;-33.924;18.406;2022-12-07T11:09:20;100384.77;;;28.97;30.62
76484;BME280;65318;-33.924;18.406;2022-12-07T11:11:38;100380.89;;;28.97;30.46
76484;BME280;65318;-33.924;18.406;2022-12-07T11:14:07;100377.38;;;29.18;30.22
76484;BME280;65318;-33.924;18.406;2022-12-07T11:16:47;100373.77;;;29.34;30.22
76484;BME280;65318;-33.924;18.406;2022-12-07T11:19:05;100371.06;;;29.03;30.51
76484;BME280;65318;-33.924;18.406;2022-12-07T11:21:23;100369.85;;;28.92;30.38
76484;BME280;65318;-33.924;18.406;2022-12-07T11:23:49;100366.54;;;29.01;30.27
76484;BME280;65318;-33.924;18.406;2022-12-07T11:26:13;100371.94;;;29.33;30.17
76484;BME280;65318;-33.924;18.406;2022-12-07T11:28:43;100371.84;;;29.24;30.23
76484;BME280;65318;-33.924;18.406;2022-12-07T11:31:07;100370.73;;;29.20;30.05
76484;BME280;65318;-33.924;18.406;2022-12-07T11:33:29;100377.33;;;29.05;30.18
76484;BME280;65318;-33.924;18.406;2022-12-07T11:35:59;100378.62;;;29.17;30.02
76484;BME280;65318;-33.924;18.406;2022-12-07T11:38:17;100363.80;;;29.28;29.87
76484;BME280;65318;-33.924;18.406;2022-12-07T11:40:44;100367.01;;;29.38;30.00
76484;BME280;65318;-33.924;18.406;2022-12-07T11:43:15;100359.90;;;29.29;29.84
76484;BME280;65318;-33.924;18.406;2022-12-07T11:45:34;100360.65;;;28.95;30.16
76484;BME280;65318;-33.924;18.406;2022-12-07T11:48:00;100358.14;;;28.99;30.11
76484;BME280;65318;-33.924;18.406;2022-12-07T11:50:28;100356.39;;;29.41;30.23
76484;BME280;65318;-33.924;18.406;2022-12-07T11:52:53;100352.18;;;29.28;29.95
76484;BME280;65318;-33.924;18.406;2022-12-07T11:55:19;100351.54;;;28.91;30.26
76484;BME280;65318;-33.924;18.406;2022-12-07T11:57:44;100355.52;;;29.24;30.19
76484;BME280;65318;-33.924;18.406;2022-12-07T12:00:12;100361.78;;;28.78;30.35
76484;BME280;65318;-33.924;18.406;2022-12-07T12:02:36;100357.94;;;29.10;30.12
76484;BME280;65318;-33.924;18.406;2022-12-07T12:05:02;100352.62;;;29.24;30.27
76484;BME280;65318;-33.924;18.406;2022-12-07T12:07:23;100350.50;;;28.61;30.66
76484;BME280;65318;-33.924;18.406;2022-12-07T12:09:52;100340.09;;;28.99;30.27
76484;BME280;65318;-33.924;18.406;2022-12-07T12:12:28;100348.06;;;28.86;30.41
76484;BME280;65318;-33.924;18.406;2022-12-07T12:14:47;100344.05;;;28.95;30.31
76484;BME280;65318;-33.924;18.406;2022-12-07T12:17:17;100340.39;;;28.99;30.30
76484;BME280;65318;-33.924;18.406;2022-12-07T12:19:34;100348.94;;;29.05;30.21
76484;BME280;65318;-33.924;18.406;2022-12-07T12:21:56;100345.41;;;28.70;30.51
76484;BME280;65318;-33.924;18.406;2022-12-07T12:24:23;100350.48;;;28.97;30.24
76484;BME280;65318;-33.924;18.406;2022-12-07T12:26:51;100344.41;;;28.64;30.50
76484;BME280;65318;-33.924;18.406;2022-12-07T12:29:20;100345.36;;;28.87;30.26